Alderson, West Virginia
Current Conditions -  °F | °C
As of 7:15 PM on Wednesday 26 Nov 2014 (Local Time) from KLWB Reporting Station
Overcast Overcast  
Wind Chill: 37°   Ceiling: 3900
Heat Index: 37°   Visibility: 10mi
Dew Point: 34°   Wind: 0mph
Humidity: 88%   Direction: NA
Pressure: 29.97"   Gusts: NA
Location:  37.73°N, 80.64°W
Report Text: KLWB 270015Z AUTO 00000KT 10SM OVC039 03/01 A2997 RMK AO2 T00270009
Loading
Personal Weather Stations






























Interactive Weather Map New forecast layout! Learn more

10-Day Weather Forecast

Advertisements
Track Severe Weather on mobile